createdAt,value
2017-08-15T00:00:04.476Z,0
2017-08-15T00:01:06.067Z,0
2017-08-15T00:02:07.635Z,0
2017-08-15T00:03:09.223Z,0
2017-08-15T00:04:10.798Z,0
2017-08-15T00:05:12.344Z,0
2017-08-15T00:06:13.907Z,0
2017-08-15T00:07:15.474Z,0
2017-08-15T00:08:17.099Z,0
2017-08-15T00:09:18.652Z,0
2017-08-15T00:10:20.173Z,0
2017-08-15T00:11:21.720Z,0
2017-08-15T00:12:23.240Z,0
2017-08-15T00:13:24.787Z,0
2017-08-15T00:14:26.222Z,0
2017-08-15T00:15:27.754Z,0
2017-08-15T00:16:29.331Z,0
2017-08-15T00:17:31.199Z,0
2017-08-15T00:18:32.838Z,0
2017-08-15T00:19:34.571Z,0
2017-08-15T00:20:36.188Z,0
2017-08-15T00:21:37.797Z,0
2017-08-15T00:22:39.453Z,0
2017-08-15T00:23:41.088Z,0
2017-08-15T00:24:42.750Z,0
2017-08-15T00:25:44.370Z,0
2017-08-15T00:26:46.034Z,0
2017-08-15T00:27:47.741Z,0
2017-08-15T00:28:49.388Z,0
2017-08-15T00:29:51.047Z,0
2017-08-15T00:30:52.694Z,0
2017-08-15T00:31:54.409Z,0
2017-08-15T00:32:56.088Z,0
2017-08-15T00:33:57.724Z,0
2017-08-15T00:35:00.253Z,0
2017-08-15T00:36:01.653Z,0
2017-08-15T00:37:03.276Z,0
2017-08-15T00:38:04.949Z,0
2017-08-15T00:39:06.553Z,0
2017-08-15T00:40:08.342Z,0
2017-08-15T00:41:10.017Z,0
2017-08-15T00:42:11.634Z,0
2017-08-15T00:43:13.474Z,0
2017-08-15T00:44:15.097Z,0
2017-08-15T00:45:16.846Z,0
2017-08-15T00:46:18.509Z,0
2017-08-15T00:47:20.187Z,0
2017-08-15T00:48:21.816Z,0
2017-08-15T00:49:23.579Z,0
2017-08-15T00:50:25.199Z,0
2017-08-15T00:51:26.869Z,0
2017-08-15T00:52:28.560Z,0
2017-08-15T00:53:30.214Z,0
2017-08-15T00:54:31.845Z,0
2017-08-15T00:55:33.507Z,0
2017-08-15T00:56:35.134Z,0
2017-08-15T00:57:36.777Z,0
2017-08-15T00:58:38.494Z,0
2017-08-15T00:59:40.271Z,0
2017-08-15T01:00:41.935Z,0
2017-08-15T01:01:43.616Z,0
2017-08-15T01:02:45.201Z,0
2017-08-15T01:03:46.861Z,0
2017-08-15T01:04:48.621Z,0
2017-08-15T01:05:50.406Z,0
2017-08-15T01:06:52.132Z,0
2017-08-15T01:07:53.854Z,0
2017-08-15T01:08:55.406Z,0
2017-08-15T01:09:56.982Z,0
2017-08-15T01:10:58.631Z,0
2017-08-15T01:12:00.239Z,0
2017-08-15T01:13:01.869Z,0
2017-08-15T01:14:03.571Z,0
2017-08-15T01:15:05.169Z,0
2017-08-15T01:16:06.779Z,0
2017-08-15T01:17:08.460Z,0
2017-08-15T01:18:10.109Z,0
2017-08-15T01:19:11.698Z,0
2017-08-15T01:20:13.306Z,0
2017-08-15T01:21:14.911Z,0
2017-08-15T01:22:16.635Z,0
2017-08-15T01:23:18.348Z,0
2017-08-15T01:24:20.056Z,0
2017-08-15T01:25:21.736Z,0
2017-08-15T01:26:23.590Z,0
2017-08-15T01:27:25.797Z,0
2017-08-15T01:28:27.908Z,0
2017-08-15T01:29:29.680Z,0
2017-08-15T01:30:33.433Z,0
2017-08-15T01:31:35.224Z,0
2017-08-15T01:32:37.084Z,0
2017-08-15T01:33:38.943Z,0
2017-08-15T01:34:40.697Z,0
2017-08-15T01:35:42.492Z,0
2017-08-15T01:36:44.254Z,0
2017-08-15T01:37:46.068Z,0
2017-08-15T01:38:47.785Z,0
2017-08-15T01:39:49.556Z,0
2017-08-15T01:40:51.274Z,0
2017-08-15T01:41:53.015Z,0
2017-08-15T01:42:55.310Z,0
2017-08-15T01:43:56.964Z,0
2017-08-15T01:44:58.674Z,0
2017-08-15T01:46:00.457Z,0
2017-08-15T01:47:02.189Z,0
2017-08-15T01:48:05.085Z,0
2017-08-15T01:49:11.180Z,0
2017-08-15T01:50:12.947Z,0
2017-08-15T01:51:14.966Z,0
2017-08-15T01:52:16.689Z,0
2017-08-15T01:53:18.558Z,0
2017-08-15T01:54:20.182Z,0
2017-08-15T01:55:22.158Z,0
2017-08-15T01:56:24.388Z,0
2017-08-15T01:57:26.312Z,0
2017-08-15T01:58:28.132Z,0
2017-08-15T01:59:29.805Z,0
2017-08-15T02:00:31.566Z,0
2017-08-15T02:01:33.372Z,0
2017-08-15T02:02:35.620Z,0
2017-08-15T02:03:39.511Z,0
2017-08-15T02:04:41.631Z,0
2017-08-15T02:05:43.781Z,0
2017-08-15T02:06:46.233Z,0
2017-08-15T02:07:47.895Z,0
2017-08-15T02:08:49.681Z,0
2017-08-15T02:09:51.448Z,0
2017-08-15T02:10:53.302Z,0
2017-08-15T02:11:55.257Z,0
2017-08-15T02:12:58.460Z,0
2017-08-15T02:14:00.482Z,0
2017-08-15T02:15:03.473Z,0
2017-08-15T02:16:05.156Z,0
2017-08-15T02:17:07.090Z,0
2017-08-15T02:18:10.258Z,0
2017-08-15T02:19:13.533Z,0
2017-08-15T02:20:16.126Z,0
2017-08-15T02:21:18.557Z,0
2017-08-15T02:22:20.092Z,0
2017-08-15T02:23:23.846Z,0
2017-08-15T02:24:26.345Z,0
2017-08-15T02:25:28.606Z,0
2017-08-15T02:26:33.301Z,0
2017-08-15T02:27:35.208Z,0
2017-08-15T02:28:38.129Z,0
2017-08-15T02:29:39.946Z,0
2017-08-15T02:30:42.280Z,0
2017-08-15T02:31:45.366Z,0
2017-08-15T02:32:48.771Z,0
2017-08-15T02:33:51.532Z,0
2017-08-15T02:34:54.306Z,0
2017-08-15T02:35:57.124Z,0
2017-08-15T02:36:58.703Z,0
2017-08-15T02:38:00.314Z,0
2017-08-15T02:39:01.920Z,0
2017-08-15T02:40:03.493Z,0
2017-08-15T02:41:05.137Z,0
2017-08-15T02:42:08.606Z,0
2017-08-15T02:43:10.341Z,0
2017-08-15T02:44:11.995Z,0
2017-08-15T02:45:13.651Z,0
2017-08-15T02:46:15.192Z,0
2017-08-15T02:47:16.844Z,0
2017-08-15T02:48:18.473Z,0
2017-08-15T02:49:20.080Z,0
2017-08-15T02:50:21.682Z,0
2017-08-15T02:51:23.250Z,0
2017-08-15T02:52:24.885Z,0
2017-08-15T02:53:26.490Z,0
2017-08-15T02:54:28.145Z,0
2017-08-15T02:55:29.733Z,0
2017-08-15T02:56:31.411Z,0
2017-08-15T02:57:33.009Z,0
2017-08-15T02:58:34.657Z,0
2017-08-15T02:59:36.320Z,0
2017-08-15T03:00:37.941Z,0
2017-08-15T03:01:39.579Z,0
2017-08-15T03:02:41.129Z,0
2017-08-15T03:03:42.780Z,0
2017-08-15T03:04:44.616Z,0
2017-08-15T03:05:46.262Z,0
2017-08-15T03:06:47.946Z,0
2017-08-15T03:07:49.574Z,0
2017-08-15T03:08:51.209Z,0
2017-08-15T03:09:52.816Z,0
2017-08-15T03:10:54.527Z,0
2017-08-15T03:11:56.077Z,0
2017-08-15T03:12:57.699Z,0
2017-08-15T03:13:59.290Z,0
2017-08-15T03:15:00.982Z,0
2017-08-15T03:16:02.611Z,0
2017-08-15T03:17:04.259Z,0
2017-08-15T03:18:05.891Z,0
2017-08-15T03:19:07.533Z,0
2017-08-15T03:20:09.172Z,0
2017-08-15T03:21:10.788Z,0
2017-08-15T03:22:12.489Z,0
2017-08-15T03:23:14.282Z,0
2017-08-15T03:24:15.907Z,0
2017-08-15T03:25:17.616Z,0
2017-08-15T03:26:19.251Z,0
2017-08-15T03:27:20.813Z,0
2017-08-15T03:28:22.434Z,0
2017-08-15T03:29:24.035Z,4
2017-08-15T03:30:25.621Z,4
2017-08-15T03:31:27.209Z,0
2017-08-15T03:32:28.819Z,4
2017-08-15T03:33:30.455Z,4
2017-08-15T03:34:32.103Z,4
2017-08-15T03:35:33.694Z,4
2017-08-15T03:36:35.280Z,4
2017-08-15T03:37:36.848Z,8
2017-08-15T03:38:38.599Z,4
2017-08-15T03:39:40.154Z,4
2017-08-15T03:40:41.817Z,8
2017-08-15T03:41:43.427Z,12
2017-08-15T03:42:44.997Z,12
2017-08-15T03:43:46.541Z,12
2017-08-15T03:44:48.170Z,16
2017-08-15T03:45:49.700Z,20
2017-08-15T03:46:51.312Z,16
2017-08-15T03:47:52.884Z,20
2017-08-15T03:48:54.389Z,24
2017-08-15T03:49:56.024Z,24
2017-08-15T03:50:57.682Z,28
2017-08-15T03:51:59.454Z,32
2017-08-15T03:53:00.886Z,36
2017-08-15T03:54:02.510Z,40
2017-08-15T03:55:04.417Z,44
2017-08-15T03:56:06.163Z,48
2017-08-15T03:57:07.997Z,52
2017-08-15T03:58:09.597Z,56
2017-08-15T03:59:11.477Z,64
2017-08-15T04:00:13.421Z,68
2017-08-15T04:01:15.160Z,76
2017-08-15T04:02:16.917Z,84
2017-08-15T04:03:20.805Z,92
2017-08-15T04:04:23.102Z,104
2017-08-15T04:05:24.929Z,112
2017-08-15T04:06:26.702Z,128
2017-08-15T04:07:29.893Z,140
2017-08-15T04:08:31.883Z,156
2017-08-15T04:09:34.856Z,176
2017-08-15T04:10:37.406Z,192
2017-08-15T04:11:38.978Z,216
2017-08-15T04:12:40.608Z,232
2017-08-15T04:13:42.155Z,240
2017-08-15T04:14:43.767Z,252
2017-08-15T04:15:47.178Z,264
2017-08-15T04:16:48.807Z,280
2017-08-15T04:17:50.438Z,296
2017-08-15T04:18:52.037Z,308
2017-08-15T04:19:53.721Z,320
2017-08-15T04:20:55.314Z,332
2017-08-15T04:21:56.972Z,348
2017-08-15T04:22:58.589Z,376
2017-08-15T04:24:00.202Z,404
2017-08-15T04:25:01.807Z,432
2017-08-15T04:26:03.381Z,472
2017-08-15T04:27:05.005Z,500
2017-08-15T04:28:06.591Z,520
2017-08-15T04:29:08.195Z,556
2017-08-15T04:30:09.803Z,584
2017-08-15T04:31:11.440Z,616
2017-08-15T04:32:13.268Z,640
2017-08-15T04:33:14.879Z,676
2017-08-15T04:34:16.474Z,716
2017-08-15T04:35:18.626Z,756
2017-08-15T04:36:20.274Z,788
2017-08-15T04:37:22.576Z,824
2017-08-15T04:38:24.123Z,848
2017-08-15T04:39:26.226Z,856
2017-08-15T04:40:28.158Z,888
2017-08-15T04:41:29.754Z,920
2017-08-15T04:42:31.351Z,904
2017-08-15T04:43:33.002Z,888
2017-08-15T04:44:34.722Z,908
2017-08-15T04:45:36.476Z,944
2017-08-15T04:46:38.173Z,1000
2017-08-15T04:47:39.753Z,1032
2017-08-15T04:48:41.442Z,1076
2017-08-15T04:50:23.508Z,1160
2017-08-15T04:52:05.470Z,1268
2017-08-15T04:53:07.759Z,1248
2017-08-15T04:54:09.348Z,1240
2017-08-15T04:55:10.962Z,1272
2017-08-15T04:57:33.009Z,1356
2017-08-15T04:58:35.176Z,1364
2017-08-15T04:59:36.814Z,1360
2017-08-15T05:00:41.238Z,1396
2017-08-15T05:01:42.975Z,1488
2017-08-15T05:02:44.848Z,1592
2017-08-15T05:03:46.528Z,1632
2017-08-15T05:04:48.457Z,1616
2017-08-15T05:05:50.034Z,1648
2017-08-15T05:06:51.689Z,1680
2017-08-15T05:07:53.311Z,1764
2017-08-15T05:08:55.558Z,1892
2017-08-15T05:09:57.695Z,1956
2017-08-15T05:10:59.966Z,2056
2017-08-15T05:12:05.440Z,2088
2017-08-15T05:13:07.175Z,2136
2017-08-15T05:14:08.923Z,2204
2017-08-15T05:15:11.696Z,2256
2017-08-15T05:16:13.943Z,2264
2017-08-15T05:17:15.791Z,2268
2017-08-15T05:18:17.518Z,2292
2017-08-15T05:19:19.223Z,2292
2017-08-15T05:20:20.980Z,2280
2017-08-15T05:21:23.318Z,2312
2017-08-15T05:22:25.041Z,2356
2017-08-15T05:23:26.921Z,2392
2017-08-15T05:24:28.864Z,2416
2017-08-15T05:25:30.611Z,2436
2017-08-15T05:26:32.516Z,2468
2017-08-15T05:27:34.273Z,2596
2017-08-15T05:28:36.020Z,2716
2017-08-15T05:29:37.800Z,2812
2017-08-15T05:30:39.746Z,3088
2017-08-15T05:31:41.687Z,3180
2017-08-15T05:32:45.180Z,3116
2017-08-15T05:33:47.121Z,3152
2017-08-15T05:34:48.941Z,3296
2017-08-15T05:35:50.735Z,3392
2017-08-15T05:36:52.605Z,3416
2017-08-15T05:37:54.187Z,3428
2017-08-15T05:38:55.758Z,3460
2017-08-15T05:39:57.309Z,3500
2017-08-15T05:40:58.896Z,3760
2017-08-15T05:42:00.500Z,3936
2017-08-15T05:43:02.043Z,3968
2017-08-15T05:44:03.602Z,3904
2017-08-15T05:45:05.463Z,3872
2017-08-15T05:46:07.031Z,3872
2017-08-15T05:47:08.590Z,3768
2017-08-15T05:48:10.180Z,3804
2017-08-15T05:49:11.704Z,3776
2017-08-15T05:50:13.275Z,3872
2017-08-15T05:51:15.058Z,3788
2017-08-15T05:52:16.590Z,3504
2017-08-15T05:53:18.191Z,3420
2017-08-15T05:54:19.815Z,3324
2017-08-15T05:55:21.433Z,3240
2017-08-15T05:56:23.056Z,3256
2017-08-15T05:57:24.729Z,3436
2017-08-15T05:58:26.322Z,3484
2017-08-15T05:59:27.933Z,3620
2017-08-15T06:00:29.724Z,3920
2017-08-15T06:01:31.239Z,3896
2017-08-15T06:02:32.840Z,4016
2017-08-15T06:03:34.508Z,4140
2017-08-15T06:04:36.118Z,4168
2017-08-15T06:05:37.706Z,4208
2017-08-15T06:06:39.333Z,4124
2017-08-15T06:07:41.008Z,4028
2017-08-15T06:08:42.671Z,3636
2017-08-15T06:09:44.260Z,3444
2017-08-15T06:10:45.850Z,3576
2017-08-15T06:11:47.433Z,3628
2017-08-15T06:12:49.020Z,3452
2017-08-15T06:13:50.699Z,3612
2017-08-15T06:14:52.332Z,3444
2017-08-15T06:15:53.917Z,3228
2017-08-15T06:16:55.489Z,3060
2017-08-15T06:17:57.135Z,3104
2017-08-15T06:18:58.676Z,4020
2017-08-15T06:20:00.285Z,4240
2017-08-15T06:21:01.877Z,3172
2017-08-15T06:22:03.482Z,3732
2017-08-15T06:23:05.101Z,4776
2017-08-15T06:24:06.656Z,5496
2017-08-15T06:25:08.267Z,5856
2017-08-15T06:26:09.824Z,3864
2017-08-15T06:27:11.416Z,5628
2017-08-15T06:28:13.016Z,5240
2017-08-15T06:29:14.588Z,5228
2017-08-15T06:30:16.162Z,5316
2017-08-15T06:31:17.706Z,5460
2017-08-15T06:32:19.361Z,5416
2017-08-15T06:33:20.894Z,5192
2017-08-15T06:34:22.634Z,5248
2017-08-15T06:35:24.534Z,5232
2017-08-15T06:36:26.438Z,5356
2017-08-15T06:37:27.969Z,5632
2017-08-15T06:38:29.528Z,5936
2017-08-15T06:39:31.092Z,6372
2017-08-15T06:40:32.680Z,6096
2017-08-15T06:41:34.264Z,5764
2017-08-15T06:42:35.882Z,5748
2017-08-15T06:43:37.493Z,5856
2017-08-15T06:44:39.019Z,5980
2017-08-15T06:45:40.598Z,6092
2017-08-15T06:46:42.219Z,5524
2017-08-15T06:47:43.812Z,5692
2017-08-15T06:48:45.415Z,5364
2017-08-15T06:49:47.031Z,5320
2017-08-15T06:50:48.577Z,5320
2017-08-15T06:51:50.138Z,5000
2017-08-15T06:52:51.672Z,5128
2017-08-15T06:53:53.290Z,4980
2017-08-15T06:54:54.814Z,5264
2017-08-15T06:55:56.412Z,4896
2017-08-15T06:56:58.147Z,4772
2017-08-15T06:57:59.702Z,4900
2017-08-15T06:59:01.246Z,5116
2017-08-15T07:00:02.775Z,5192
2017-08-15T07:01:04.338Z,5060
2017-08-15T07:02:05.881Z,4968
2017-08-15T07:03:07.406Z,5080
2017-08-15T07:04:09.021Z,5060
2017-08-15T07:05:10.570Z,5072
2017-08-15T07:06:12.090Z,4700
2017-08-15T07:07:13.658Z,4760
2017-08-15T07:08:15.261Z,4756
2017-08-15T07:09:16.877Z,4796
2017-08-15T07:10:18.447Z,4816
2017-08-15T07:11:20.080Z,5036
2017-08-15T07:12:21.670Z,5144
2017-08-15T07:13:23.177Z,5188
2017-08-15T07:14:24.684Z,5640
2017-08-15T07:15:26.311Z,5684
2017-08-15T07:16:27.877Z,5872
2017-08-15T07:17:29.382Z,5728
2017-08-15T07:18:30.917Z,6032
2017-08-15T07:19:32.570Z,5808
2017-08-15T07:20:34.213Z,5628
2017-08-15T07:21:35.749Z,5964
2017-08-15T07:22:37.344Z,5812
2017-08-15T07:23:39.032Z,5804
2017-08-15T07:24:40.530Z,6280
2017-08-15T07:25:42.033Z,6312
2017-08-15T07:26:43.603Z,6236
2017-08-15T07:27:45.134Z,6528
2017-08-15T07:28:46.754Z,6088
2017-08-15T07:29:48.258Z,5996
2017-08-15T07:30:49.757Z,6052
2017-08-15T07:31:51.257Z,6116
2017-08-15T07:32:52.757Z,5464
2017-08-15T07:33:54.357Z,6692
2017-08-15T07:34:55.848Z,6476
2017-08-15T07:35:57.342Z,6048
2017-08-15T07:36:58.877Z,6688
2017-08-15T07:38:00.404Z,7580
2017-08-15T07:39:01.950Z,8820
2017-08-15T07:40:03.439Z,8036
2017-08-15T07:41:04.970Z,7284
2017-08-15T07:42:06.520Z,7060
2017-08-15T07:43:08.003Z,7324
2017-08-15T07:44:09.496Z,7360
2017-08-15T07:45:11.018Z,7944
2017-08-15T07:46:12.646Z,7836
2017-08-15T07:47:14.277Z,7960
2017-08-15T07:48:15.783Z,7388
2017-08-15T07:49:17.352Z,7420
2017-08-15T07:50:18.889Z,7664
2017-08-15T07:51:20.440Z,7260
2017-08-15T07:52:21.972Z,8412
2017-08-15T07:53:23.577Z,10028
2017-08-15T07:54:25.085Z,9032
2017-08-15T07:55:26.581Z,8320
2017-08-15T07:56:28.326Z,6700
2017-08-15T07:57:29.869Z,6476
2017-08-15T07:58:31.846Z,6300
2017-08-15T07:59:33.352Z,6240
2017-08-15T08:00:34.860Z,6572
2017-08-15T08:01:36.394Z,7128
2017-08-15T08:02:37.891Z,6640
2017-08-15T08:03:39.451Z,6608
2017-08-15T08:04:41.034Z,6464
2017-08-15T08:05:42.516Z,5800
2017-08-15T08:06:44.053Z,5712
2017-08-15T08:07:45.619Z,6512
2017-08-15T08:08:47.121Z,5584
2017-08-15T08:09:48.596Z,5112
2017-08-15T08:10:50.066Z,4604
2017-08-15T08:11:51.615Z,3984
2017-08-15T08:12:53.280Z,3948
2017-08-15T08:13:54.796Z,4060
2017-08-15T08:14:57.282Z,4348
2017-08-15T08:15:58.806Z,4136
2017-08-15T08:17:00.285Z,4892
2017-08-15T08:18:01.802Z,4456
2017-08-15T08:19:03.383Z,4436
2017-08-15T08:20:04.888Z,4960
2017-08-15T08:21:06.410Z,4188
2017-08-15T08:22:07.903Z,4144
2017-08-15T08:23:09.414Z,5504
2017-08-15T08:24:10.957Z,6260
2017-08-15T08:25:12.552Z,7920
2017-08-15T08:26:14.050Z,8188
2017-08-15T08:27:16.141Z,8688
2017-08-15T08:28:17.669Z,9100
2017-08-15T08:29:19.164Z,9192
2017-08-15T08:30:20.641Z,9100
2017-08-15T08:31:22.176Z,9316
2017-08-15T08:32:23.713Z,9080
2017-08-15T08:33:25.184Z,8840
2017-08-15T08:34:26.689Z,8652
2017-08-15T08:35:28.195Z,8600
2017-08-15T08:36:29.771Z,9460
2017-08-15T08:37:31.341Z,9572
2017-08-15T08:38:32.880Z,9636
2017-08-15T08:39:34.334Z,9724
2017-08-15T08:40:35.863Z,9848
2017-08-15T08:41:37.389Z,9908
2017-08-15T08:42:38.970Z,9856
2017-08-15T08:43:40.494Z,9584
2017-08-15T08:44:41.975Z,9732
2017-08-15T08:45:43.490Z,9864
2017-08-15T08:46:45.008Z,9920
2017-08-15T08:47:46.563Z,9912
2017-08-15T08:48:48.090Z,9784
2017-08-15T08:49:49.624Z,10044
2017-08-15T08:50:51.193Z,9996
2017-08-15T08:51:52.769Z,10140
2017-08-15T08:52:54.375Z,10088
2017-08-15T08:55:06.610Z,10128
2017-08-15T08:56:08.204Z,10240
2017-08-15T08:57:09.694Z,10248
2017-08-15T08:58:11.171Z,10304
2017-08-15T08:59:12.757Z,10312
2017-08-15T09:00:14.305Z,10356
2017-08-15T09:01:15.810Z,10336
2017-08-15T09:02:17.357Z,10296
2017-08-15T09:03:18.889Z,10360
2017-08-15T09:04:20.414Z,10280
2017-08-15T09:05:21.920Z,10320
2017-08-15T09:06:23.407Z,10264
2017-08-15T09:07:24.941Z,10364
2017-08-15T09:08:26.504Z,10204
2017-08-15T09:09:28.104Z,10284
2017-08-15T09:10:29.629Z,10328
2017-08-15T09:11:31.156Z,10304
2017-08-15T09:12:32.732Z,10240
2017-08-15T09:13:34.245Z,10208
2017-08-15T09:14:35.789Z,10220
2017-08-15T09:15:37.298Z,10164
2017-08-15T09:16:38.823Z,10068
2017-08-15T09:17:40.796Z,10100
2017-08-15T09:18:42.348Z,10072
2017-08-15T09:19:43.943Z,10284
2017-08-15T09:20:45.516Z,10140
2017-08-15T09:21:47.061Z,10180
2017-08-15T09:22:48.641Z,10200
2017-08-15T09:23:50.165Z,10228
2017-08-15T09:24:51.703Z,10284
2017-08-15T09:25:53.236Z,10304
2017-08-15T09:26:54.757Z,10332
2017-08-15T09:27:56.458Z,10376
2017-08-15T09:28:57.971Z,10580
2017-08-15T09:29:59.553Z,10644
2017-08-15T09:31:01.125Z,10780
2017-08-15T09:32:02.815Z,10832
2017-08-15T09:33:04.562Z,10784
2017-08-15T09:34:06.067Z,10864
2017-08-15T09:35:07.663Z,10848
2017-08-15T09:36:09.250Z,11032
2017-08-15T09:37:10.813Z,11076
2017-08-15T09:38:12.443Z,11228
2017-08-15T09:39:13.995Z,11272
2017-08-15T09:40:15.515Z,11328
2017-08-15T09:41:17.039Z,11412
2017-08-15T09:42:18.618Z,11504
2017-08-15T09:43:20.121Z,11680
2017-08-15T09:44:21.693Z,11688
2017-08-15T09:45:23.248Z,11756
2017-08-15T09:46:24.808Z,11780
2017-08-15T09:47:26.332Z,11840
2017-08-15T09:48:27.875Z,11792
2017-08-15T09:49:29.418Z,12008
2017-08-15T09:50:30.900Z,12144
2017-08-15T09:51:32.403Z,12236
2017-08-15T09:52:33.920Z,12360
2017-08-15T09:53:35.437Z,12372
2017-08-15T09:54:36.964Z,12264
2017-08-15T09:55:38.503Z,12732
2017-08-15T09:56:40.102Z,12812
2017-08-15T09:57:41.636Z,12888
2017-08-15T09:58:43.207Z,12928
2017-08-15T09:59:44.701Z,13168
2017-08-15T10:00:46.279Z,13296
2017-08-15T10:01:47.811Z,13256
2017-08-15T10:02:49.337Z,13368
2017-08-15T10:03:50.891Z,13436
2017-08-15T10:04:52.461Z,13336
2017-08-15T10:05:54.017Z,13372
2017-08-15T10:06:55.524Z,13364
2017-08-15T10:07:57.050Z,13432
2017-08-15T10:08:58.530Z,13536
2017-08-15T10:10:00.097Z,13476
2017-08-15T10:11:01.627Z,13424
2017-08-15T10:12:03.146Z,13288
2017-08-15T10:13:04.690Z,13284
2017-08-15T10:14:06.259Z,13184
2017-08-15T10:15:07.773Z,13164
2017-08-15T10:16:09.332Z,13116
2017-08-15T10:17:10.879Z,13028
2017-08-15T10:18:12.449Z,12972
2017-08-15T10:19:14.068Z,12868
2017-08-15T10:20:15.763Z,12776
2017-08-15T10:21:17.444Z,12604
2017-08-15T10:22:19.046Z,12524
2017-08-15T10:23:20.785Z,12416
2017-08-15T10:24:22.542Z,12280
2017-08-15T10:25:24.234Z,12268
2017-08-15T10:26:25.823Z,12204
2017-08-15T10:27:27.429Z,12176
2017-08-15T10:28:29.175Z,12184
2017-08-15T10:29:30.733Z,12192
2017-08-15T10:30:32.302Z,12184
2017-08-15T10:31:33.828Z,12108
2017-08-15T10:32:35.370Z,12036
2017-08-15T10:33:36.827Z,12008
2017-08-15T10:34:38.364Z,12024
2017-08-15T10:35:39.882Z,12060
2017-08-15T10:36:41.440Z,12144
2017-08-15T10:37:42.952Z,12260
2017-08-15T10:38:44.425Z,12380
2017-08-15T10:39:45.980Z,12612
2017-08-15T10:40:47.558Z,12728
2017-08-15T10:41:49.085Z,12864
2017-08-15T10:42:50.624Z,13032
2017-08-15T10:43:52.211Z,13108
2017-08-15T10:44:53.760Z,13208
2017-08-15T10:45:55.385Z,13208
2017-08-15T10:46:57.063Z,13184
2017-08-15T10:47:58.662Z,13172
2017-08-15T10:49:00.263Z,13196
2017-08-15T10:50:01.854Z,13148
2017-08-15T10:51:03.474Z,13092
2017-08-15T10:52:05.098Z,13104
2017-08-15T10:53:06.794Z,13172
2017-08-15T10:54:08.473Z,13304
2017-08-15T10:55:10.147Z,13468
2017-08-15T10:56:11.690Z,13760
2017-08-15T10:57:13.347Z,14160
2017-08-15T10:58:14.954Z,14664
2017-08-15T10:59:16.623Z,15140
2017-08-15T11:00:18.283Z,15712
2017-08-15T11:01:19.868Z,16192
2017-08-15T11:02:21.454Z,16640
2017-08-15T11:03:23.284Z,14796
2017-08-15T11:04:24.923Z,18304
2017-08-15T11:05:26.561Z,18816
2017-08-15T11:06:28.122Z,19072
2017-08-15T11:07:29.756Z,19552
2017-08-15T11:08:31.286Z,20000
2017-08-15T11:09:32.890Z,24320
2017-08-15T11:10:34.549Z,40864
2017-08-15T11:11:36.175Z,50080
2017-08-15T11:12:37.751Z,50880
2017-08-15T11:13:39.316Z,51936
2017-08-15T11:14:40.992Z,52992
2017-08-15T11:15:42.662Z,52576
2017-08-15T11:16:44.240Z,51840
2017-08-15T11:17:45.806Z,52032
2017-08-15T11:18:47.352Z,50688
2017-08-15T11:19:48.966Z,46208
2017-08-15T11:20:50.527Z,50528
2017-08-15T11:21:52.075Z,55808
2017-08-15T11:22:53.608Z,56640
2017-08-15T11:23:55.199Z,53568
2017-08-15T11:24:56.828Z,53888
2017-08-15T11:25:58.370Z,22528
2017-08-15T11:27:00.015Z,6560
2017-08-15T11:28:01.598Z,56704
2017-08-15T11:29:03.146Z,56096
2017-08-15T11:30:04.635Z,56576
2017-08-15T11:31:06.205Z,56736
2017-08-15T11:32:07.841Z,9788
2017-08-15T11:33:09.398Z,8060
2017-08-15T11:34:10.950Z,55232
2017-08-15T11:35:12.500Z,58112
2017-08-15T11:36:14.021Z,57376
2017-08-15T11:37:15.556Z,55904
2017-08-15T11:38:17.135Z,56352
2017-08-15T11:39:18.692Z,60480
2017-08-15T11:40:20.282Z,59232
2017-08-15T11:41:21.854Z,10836
2017-08-15T11:42:23.403Z,62944
2017-08-15T11:43:25.020Z,65568
2017-08-15T11:44:26.620Z,60832
2017-08-15T11:45:28.221Z,60000
2017-08-15T11:46:29.786Z,60288
2017-08-15T11:47:31.366Z,58592
2017-08-15T11:48:32.945Z,64128
2017-08-15T11:49:34.474Z,66400
2017-08-15T11:50:36.124Z,59872
2017-08-15T11:51:37.829Z,13036
2017-08-15T11:52:39.372Z,59008
2017-08-15T11:53:41.005Z,68000
2017-08-15T11:54:43.700Z,65088
2017-08-15T11:55:45.288Z,61472
2017-08-15T11:56:46.919Z,56160
2017-08-15T11:57:48.625Z,58112
2017-08-15T11:58:50.207Z,60384
2017-08-15T11:59:51.750Z,66176
2017-08-15T12:00:53.464Z,66624
2017-08-15T12:01:55.049Z,72640
2017-08-15T12:02:56.667Z,60576
2017-08-15T12:03:58.303Z,68640
2017-08-15T12:04:59.924Z,57440
2017-08-15T12:06:01.554Z,11980
2017-08-15T12:07:03.159Z,60416
2017-08-15T12:08:04.820Z,11372
2017-08-15T12:09:06.422Z,10440
2017-08-15T12:10:08.057Z,10664
2017-08-15T12:11:09.666Z,11608
2017-08-15T12:12:11.268Z,57824
2017-08-15T12:13:12.980Z,64864
2017-08-15T12:14:14.624Z,12876
2017-08-15T12:15:16.160Z,12104
2017-08-15T12:16:17.812Z,10896
2017-08-15T12:17:19.361Z,10404
2017-08-15T12:18:20.903Z,10524
2017-08-15T12:19:22.513Z,11076
2017-08-15T12:20:24.077Z,12980
2017-08-15T12:21:25.681Z,56704
2017-08-15T12:22:27.257Z,59840
2017-08-15T12:23:28.827Z,64768
2017-08-15T12:24:30.362Z,61504
2017-08-15T12:25:31.951Z,55776
2017-08-15T12:26:33.562Z,60864
2017-08-15T12:27:35.121Z,57344
2017-08-15T12:28:36.647Z,55008
2017-08-15T12:29:38.373Z,53216
2017-08-15T12:30:39.949Z,50048
2017-08-15T12:31:41.581Z,28384
2017-08-15T12:32:43.093Z,47840
2017-08-15T12:33:44.641Z,46016
2017-08-15T12:34:46.174Z,28160
2017-08-15T12:35:47.760Z,47840
2017-08-15T12:36:49.295Z,51616
2017-08-15T12:37:50.882Z,48352
2017-08-15T12:38:52.531Z,48960
2017-08-15T12:39:54.082Z,45248
2017-08-15T12:40:55.680Z,51872
2017-08-15T12:41:57.039Z,47296
2017-08-15T12:42:58.606Z,49280
2017-08-15T12:44:00.151Z,55200
2017-08-15T12:45:01.697Z,60960
2017-08-15T12:46:03.253Z,63008
2017-08-15T12:47:04.817Z,64736
2017-08-15T12:48:06.420Z,60032
2017-08-15T12:49:07.891Z,49920
2017-08-15T12:50:09.460Z,39232
2017-08-15T12:51:11.006Z,31840
2017-08-15T12:52:12.554Z,29184
2017-08-15T12:53:14.215Z,28256
2017-08-15T12:54:15.796Z,13816
2017-08-15T12:55:17.349Z,15904
2017-08-15T12:56:19.187Z,33216
2017-08-15T12:57:20.705Z,23744
2017-08-15T12:58:22.322Z,18176
2017-08-15T12:59:23.945Z,59904
2017-08-15T13:00:25.487Z,67552
2017-08-15T13:01:27.044Z,18240
2017-08-15T13:02:28.566Z,71488
2017-08-15T13:03:30.169Z,74272
2017-08-15T13:04:31.748Z,62848
2017-08-15T13:05:33.371Z,17760
2017-08-15T13:06:34.925Z,15244
2017-08-15T13:07:36.465Z,59520
2017-08-15T13:08:38.084Z,65344
2017-08-15T13:09:39.670Z,61952
2017-08-15T13:10:41.255Z,13424
2017-08-15T13:11:42.884Z,31072
2017-08-15T13:12:44.507Z,12432
2017-08-15T13:13:46.041Z,12504
2017-08-15T13:14:47.557Z,12504
2017-08-15T13:15:49.153Z,13976
2017-08-15T13:16:50.743Z,63264
2017-08-15T13:17:52.333Z,59776
2017-08-15T13:18:53.965Z,62016
2017-08-15T13:19:55.500Z,65888
2017-08-15T13:20:57.070Z,64960
2017-08-15T13:21:58.586Z,66208
2017-08-15T13:23:00.207Z,65440
2017-08-15T13:24:01.811Z,60288
2017-08-15T13:25:03.443Z,60320
2017-08-15T13:26:04.962Z,57280
2017-08-15T13:27:06.457Z,60736
2017-08-15T13:28:08.188Z,60608
2017-08-15T13:29:09.744Z,64192
2017-08-15T13:30:11.292Z,63424
2017-08-15T13:31:12.790Z,64384
2017-08-15T13:32:14.272Z,17792
2017-08-15T13:33:15.758Z,69088
2017-08-15T13:34:17.287Z,67296
2017-08-15T13:35:18.821Z,68384
2017-08-15T13:36:20.463Z,71296
2017-08-15T13:37:22.061Z,20224
2017-08-15T13:38:23.642Z,13888
2017-08-15T13:39:25.184Z,15432
2017-08-15T13:40:26.767Z,70912
2017-08-15T13:41:28.360Z,70624
2017-08-15T13:42:29.863Z,70272
2017-08-15T13:43:31.399Z,63200
2017-08-15T13:44:32.954Z,58624
2017-08-15T13:45:34.580Z,60576
2017-08-15T13:46:36.197Z,58656
2017-08-15T13:47:37.849Z,63968
2017-08-15T13:48:39.433Z,74912
2017-08-15T13:49:40.996Z,77792
2017-08-15T13:50:42.581Z,77472
2017-08-15T13:51:44.169Z,76160
2017-08-15T13:52:45.666Z,74176
2017-08-15T13:53:47.204Z,74624
2017-08-15T13:54:48.731Z,76448
2017-08-15T13:55:50.325Z,80384
2017-08-15T13:56:51.870Z,80800
2017-08-15T13:57:53.420Z,80256
2017-08-15T13:58:54.967Z,80160